Time;durP1;ratioP1;P1;durP2;ratioP2;P2;SDS_P1;SDS_P2;PMS_P1;PMS_P2;Temp;Humidity;BMP_temperature;BMP_pressure;BME280_temperature;BME280_humidity;BME280_pressure;Samples;Min_cycle;Max_cycle;Signal;HPM_P1;HPM_P2
2021/04/13 00:01:28;;;;;;;6.53;6.03;;;1.10;99.90;;;1.83;78.96;99027.16;5226890;28;20216;-57
2021/04/13 00:04:14;;;;;;;6.07;5.57;;;1.10;99.90;;;1.86;78.96;99023.38;5226659;28;20209;-58
2021/04/13 00:06:51;;;;;;;6.40;5.97;;;1.00;99.90;;;1.77;78.22;99023.28;5216717;28;20197;-58
2021/04/13 00:09:28;;;;;;;6.00;5.53;;;1.00;99.90;;;1.68;77.73;99031.44;5225967;28;20207;-59
2021/04/13 00:12:06;;;;;;;6.67;6.13;;;0.90;99.90;;;1.63;78.14;99027.50;5226732;28;20693;-58
2021/04/13 00:14:44;;;;;;;6.47;5.87;;;0.80;99.90;;;1.65;78.55;99031.97;5224621;28;20208;-57
2021/04/13 00:17:24;;;;;;;6.67;6.17;;;0.80;99.90;;;1.62;78.55;99026.59;5226809;28;20201;-58
2021/04/13 00:20:09;;;;;;;6.23;5.63;;;0.80;99.90;;;1.73;78.47;99033.72;5226740;28;20204;-54
2021/04/13 00:22:42;;;;;;;6.43;5.93;;;0.90;99.90;;;1.70;78.85;99025.84;5224355;28;20215;-58
2021/04/13 00:25:26;;;;;;;6.80;6.40;;;0.90;99.90;;;1.69;78.83;99029.09;5226450;28;20665;-58
2021/04/13 00:27:58;;;;;;;6.47;5.97;;;0.90;99.90;;;1.72;79.22;99031.06;5226514;28;20204;-57
2021/04/13 00:30:43;;;;;;;6.43;5.83;;;0.90;99.90;;;1.68;78.72;99028.91;5226060;28;20217;-57
2021/04/13 00:33:21;;;;;;;7.33;6.73;;;0.90;99.90;;;1.60;79.34;99028.06;5227123;28;20305;-58
2021/04/13 00:36:08;;;;;;;7.47;6.80;;;0.90;99.90;;;1.55;79.70;99029.19;5215582;28;20302;-57
2021/04/13 00:38:42;;;;;;;6.90;6.40;;;0.80;99.90;;;1.54;79.03;99025.75;5214511;28;20205;-57
2021/04/13 00:41:19;;;;;;;6.13;5.73;;;0.70;99.90;;;1.36;79.30;99028.78;5225524;28;20220;-56
2021/04/13 00:43:56;;;;;;;6.33;5.83;;;0.60;99.90;;;1.38;79.52;99034.00;5209558;28;20286;-57
2021/04/13 00:46:36;;;;;;;6.53;6.03;;;0.60;99.90;;;1.41;79.30;99034.31;5224059;28;20737;-57
2021/04/13 00:49:11;;;;;;;5.90;5.50;;;0.60;99.90;;;1.42;79.22;99031.06;5226341;28;20619;-57
2021/04/13 00:51:47;;;;;;;6.90;6.27;;;0.70;99.90;;;1.46;79.40;99033.19;5226211;28;20637;-59
2021/04/13 00:54:27;;;;;;;6.97;6.47;;;0.70;99.90;;;1.48;79.25;99039.31;5225480;28;20207;-59
2021/04/13 00:57:05;;;;;;;7.03;6.53;;;0.70;99.90;;;1.41;79.22;99036.84;5225954;28;20591;-59
2021/04/13 00:59:37;;;;;;;6.27;5.77;;;0.60;99.90;;;1.40;79.44;99042.59;5215242;28;20684;-58
2021/04/13 01:02:13;;;;;;;6.43;6.03;;;0.60;99.90;;;1.38;79.30;99037.41;5217532;28;20582;-59
2021/04/13 01:04:55;;;;;;;6.23;5.73;;;0.60;99.90;;;1.42;78.94;99036.13;5205849;28;20209;-59
2021/04/13 01:07:34;;;;;;;6.60;6.20;;;0.60;99.90;;;1.49;79.16;99041.13;5220048;28;20490;-55
2021/04/13 01:10:12;;;;;;;6.13;5.63;;;0.60;99.90;;;1.44;79.34;99039.72;5225610;28;20595;-59
2021/04/13 01:12:53;;;;;;;6.20;5.80;;;0.60;99.90;;;1.39;78.86;99029.09;5226176;28;20760;-59
2021/04/13 01:15:25;;;;;;;6.50;6.00;;;0.60;99.90;;;1.26;79.00;99029.38;5214745;28;20284;-57
2021/04/13 01:17:57;;;;;;;5.70;5.20;;;0.50;99.90;;;1.29;78.92;99039.78;5218742;28;20193;-59
2021/04/13 01:20:45;;;;;;;6.87;6.47;;;0.50;99.90;;;1.27;79.44;99036.19;5225368;28;20246;-57
2021/04/13 01:23:22;;;;;;;6.87;6.43;;;0.50;99.90;;;1.18;79.08;99042.72;5224874;28;20203;-59
2021/04/13 01:26:01;;;;;;;6.67;6.17;;;0.50;99.90;;;1.13;79.08;99034.66;5223851;28;20284;-61
2021/04/13 01:28:38;;;;;;;6.57;5.97;;;0.40;99.90;;;1.09;79.33;99040.06;5225577;28;20195;-59
2021/04/13 01:31:17;;;;;;;6.60;6.10;;;0.30;99.90;;;1.09;79.76;99040.06;5225591;28;20316;-59
2021/04/13 01:33:53;;;;;;;6.87;6.27;;;0.40;99.90;;;1.09;80.03;99045.13;5224988;28;20272;-57
2021/04/13 01:36:30;;;;;;;6.17;5.77;;;0.40;99.90;;;1.06;79.99;99038.81;5225288;28;20224;-59
2021/04/13 01:39:08;;;;;;;6.63;6.13;;;0.30;99.90;;;1.11;79.94;99036.09;5224310;28;20297;-59
2021/04/13 01:41:57;;;;;;;6.93;6.43;;;0.30;99.90;;;1.06;79.93;99046.38;5225226;28;20308;-59
2021/04/13 01:44:37;;;;;;;7.00;6.33;;;0.30;99.90;;;0.91;80.34;99043.03;5222370;28;20575;-57
2021/04/13 01:47:16;;;;;;;6.73;6.23;;;0.20;99.90;;;0.88;80.23;99036.03;5225081;28;20596;-59
2021/04/13 01:49:52;;;;;;;6.17;5.77;;;0.10;99.90;;;0.90;80.45;99049.69;5224904;28;20199;-58
2021/04/13 01:52:30;;;;;;;7.20;6.60;;;0.10;99.90;;;0.89;80.76;99040.34;5225030;28;20739;-59
2021/04/13 01:55:09;;;;;;;7.03;6.43;;;0.20;99.90;;;0.96;80.85;99041.94;5223147;28;20284;-62
2021/04/13 01:57:48;;;;;;;6.47;6.07;;;0.30;99.90;;;1.05;80.48;99037.03;5224943;28;20200;-59
2021/04/13 02:00:28;;;;;;;6.07;5.60;;;0.30;99.90;;;1.10;80.58;99038.44;5211303;28;20201;-59
2021/04/13 02:03:11;;;;;;;6.60;6.10;;;0.40;99.90;;;1.12;80.72;99039.53;5209852;28;20224;-57
2021/04/13 02:05:50;;;;;;;6.20;5.70;;;0.40;99.90;;;1.10;80.50;99043.50;5225275;28;20685;-58
2021/04/13 02:08:29;;;;;;;6.30;5.90;;;0.30;99.90;;;1.13;80.46;99036.28;5224148;28;20636;-59
2021/04/13 02:11:08;;;;;;;7.27;6.73;;;0.40;99.90;;;1.08;80.38;99039.91;5224585;28;20228;-61
2021/04/13 02:13:47;;;;;;;6.10;5.70;;;0.30;99.90;;;1.08;80.57;99047.44;5225152;28;20197;-59
2021/04/13 02:16:25;;;;;;;6.93;6.33;;;0.30;99.90;;;1.13;80.46;99041.31;5206521;28;20206;-59
2021/04/13 02:18:59;;;;;;;6.33;5.83;;;0.30;99.90;;;1.10;80.52;99051.94;5224006;28;20211;-58
2021/04/13 02:21:35;;;;;;;5.93;5.53;;;0.30;99.90;;;1.07;80.53;99045.66;5224969;28;20308;-59
2021/04/13 02:24:12;;;;;;;6.60;6.10;;;0.30;99.90;;;1.10;80.67;99053.56;5224629;28;20226;-59
2021/04/13 02:26:51;;;;;;;6.43;5.93;;;0.40;99.90;;;1.14;80.53;99048.13;5224468;28;20198;-59
2021/04/13 02:29:33;;;;;;;7.40;6.80;;;0.40;99.90;;;1.15;80.26;99044.03;5224744;28;20201;-58
2021/04/13 02:32:15;;;;;;;7.77;7.07;;;0.40;99.90;;;1.12;80.20;99045.47;5224719;28;20720;-59
2021/04/13 02:34:52;;;;;;;7.03;6.43;;;0.30;99.90;;;1.09;80.61;99050.16;5204649;28;20209;-59
2021/04/13 02:37:32;;;;;;;6.97;6.37;;;0.30;99.90;;;1.08;80.78;99050.84;5223636;28;20195;-59
2021/04/13 02:40:07;;;;;;;7.07;6.47;;;0.30;99.90;;;1.09;80.11;99054.28;5228141;28;20274;-59
2021/04/13 02:42:43;;;;;;;6.50;6.10;;;0.30;99.90;;;1.11;80.70;99050.31;5227068;28;20225;-57
2021/04/13 02:45:30;;;;;;;6.57;6.10;;;0.30;99.90;;;1.17;80.50;99056.03;5227473;28;20562;-58
2021/04/13 02:48:08;;;;;;;7.53;6.97;;;0.40;99.90;;;1.10;80.57;99053.56;5224580;28;20666;-61
2021/04/13 02:50:46;;;;;;;6.63;6.13;;;0.30;99.90;;;1.07;80.65;99050.69;5228403;28;20314;-58
2021/04/13 02:53:26;;;;;;;6.77;6.27;;;0.30;99.90;;;1.02;79.95;99045.13;5222030;28;20575;-58
2021/04/13 02:56:00;;;;;;;6.07;5.43;;;0.20;99.90;;;0.86;79.94;99045.03;5213567;28;20280;-59
2021/04/13 02:58:42;;;;;;;6.67;6.17;;;0.10;99.90;;;0.76;80.22;99047.22;5227888;28;20658;-58
2021/04/13 03:01:15;;;;;;;7.23;6.57;;;0.00;99.90;;;0.84;80.17;99043.06;5227957;28;20212;-59
2021/04/13 03:03:49;;;;;;;6.47;5.97;;;0.10;99.90;;;0.89;80.42;99045.38;5227649;28;20293;-59
2021/04/13 03:06:22;;;;;;;6.77;6.30;;;0.10;99.90;;;0.96;80.56;99051.09;5228304;28;20201;-59
2021/04/13 03:08:55;;;;;;;6.60;6.10;;;0.20;99.90;;;0.99;80.36;99053.97;5227157;28;20207;-57
2021/04/13 03:11:27;;;;;;;6.80;6.30;;;0.20;99.90;;;0.95;80.33;99055.25;5228021;28;20810;-59
2021/04/13 03:14:00;;;;;;;6.70;6.20;;;0.10;99.90;;;0.95;80.11;99061.91;5222643;28;20571;-59
2021/04/13 03:16:37;;;;;;;6.57;6.00;;;0.10;99.90;;;0.83;80.15;99053.84;5227033;28;20285;-58
2021/04/13 03:19:13;;;;;;;6.40;6.00;;;0.00;99.90;;;0.78;79.68;99053.34;5224074;28;20197;-58
2021/04/13 03:21:50;;;;;;;6.33;5.93;;;0.00;99.90;;;0.75;79.67;99050.47;5227932;28;20248;-60
2021/04/13 03:24:28;;;;;;;6.77;6.27;;;-0.10;99.90;;;0.77;79.31;99053.16;5217133;28;20664;-57
2021/04/13 03:27:04;;;;;;;6.63;6.07;;;-0.10;99.90;;;0.64;80.15;99048.34;5226988;28;20205;-61
2021/04/13 03:29:46;;;;;;;6.83;6.33;;;-0.10;99.90;;;0.67;80.43;99053.72;5227262;28;20197;-59
2021/04/13 03:32:22;;;;;;;6.50;6.00;;;-0.10;99.90;;;0.67;80.01;99052.09;5226910;28;20308;-58
2021/04/13 03:34:55;;;;;;;6.10;5.70;;;-0.10;99.90;;;0.58;80.76;99050.16;5227627;28;20200;-58
2021/04/13 03:37:28;;;;;;;6.50;6.00;;;-0.10;99.90;;;0.55;81.01;99049.81;5226346;28;20224;-58
2021/04/13 03:40:07;;;;;;;6.77;6.27;;;-0.10;99.90;;;0.62;80.48;99057.34;5227389;28;20205;-59
2021/04/13 03:42:39;;;;;;;7.27;6.77;;;-0.10;99.90;;;0.73;80.75;99056.03;5224550;28;20226;-57
2021/04/13 03:45:15;;;;;;;7.33;6.80;;;0.00;99.90;;;0.73;80.97;99051.91;5208739;28;20224;-57
2021/04/13 03:47:47;;;;;;;7.30;6.77;;;0.00;99.90;;;0.73;80.94;99049.38;5226226;28;20237;-57
2021/04/13 03:50:26;;;;;;;7.00;6.40;;;0.00;99.90;;;0.68;80.66;99053.00;5226585;28;20200;-59
2021/04/13 03:53:07;;;;;;;7.20;6.70;;;-0.10;99.90;;;0.66;80.51;99049.44;5220825;28;20220;-55
2021/04/13 03:55:58;;;;;;;7.23;6.73;;;-0.10;99.90;;;0.65;80.49;99057.69;5227713;28;20291;-55
2021/04/13 03:58:40;;;;;;;7.47;6.90;;;-0.10;99.90;;;0.58;81.60;99052.69;5227113;28;20684;-57
2021/04/13 04:01:21;;;;;;;6.93;6.33;;;-0.20;99.90;;;0.60;80.90;99068.81;5226900;28;20209;-56
2021/04/13 04:03:56;;;;;;;7.23;6.73;;;-0.20;99.90;;;0.57;80.78;99063.44;5223114;28;20197;-56
2021/04/13 04:06:45;;;;;;;7.10;6.60;;;-0.30;99.90;;;0.56;80.91;99067.59;5226803;28;20299;-58
2021/04/13 04:09:21;;;;;;;7.27;6.77;;;-0.20;99.90;;;0.60;81.07;99066.31;5206583;28;20577;-55
2021/04/13 04:11:53;;;;;;;7.27;6.70;;;-0.20;99.90;;;0.60;80.96;99073.84;5226032;28;20235;-57
2021/04/13 04:14:29;;;;;;;7.23;6.63;;;-0.20;99.90;;;0.66;80.67;99069.56;5226564;28;20200;-58
2021/04/13 04:17:05;;;;;;;7.13;6.57;;;-0.10;99.90;;;0.64;81.02;99076.03;5226668;28;20200;-56
2021/04/13 04:19:37;;;;;;;7.63;7.03;;;-0.10;99.90;;;0.66;80.45;99077.09;5226324;28;20744;-56
2021/04/13 04:22:14;;;;;;;7.27;6.70;;;-0.10;99.90;;;0.68;79.98;99073.13;5226272;28;20300;-56
2021/04/13 04:24:46;;;;;;;7.30;6.80;;;-0.20;99.90;;;0.65;79.65;99078.69;5226738;28;20232;-56
2021/04/13 04:27:30;;;;;;;7.63;6.93;;;-0.20;99.90;;;0.51;79.78;99077.84;5226740;28;20647;-55
2021/04/13 04:30:23;;;;;;;8.00;7.30;;;-0.30;99.90;;;0.38;80.30;99081.47;5225152;28;20224;-59
2021/04/13 04:32:57;;;;;;;7.20;6.50;;;-0.40;99.90;;;0.26;79.65;99085.06;5220525;28;20848;-55
2021/04/13 04:35:38;;;;;;;7.77;7.03;;;-0.50;99.90;;;0.15;80.30;99088.84;5224546;28;20204;-55
2021/04/13 04:38:26;;;;;;;7.33;6.63;;;-0.60;99.90;;;0.15;80.92;99090.47;5222054;28;20271;-59
2021/04/13 04:41:05;;;;;;;7.77;7.07;;;-0.60;99.90;;;0.25;81.18;99092.44;5226593;28;20287;-58
2021/04/13 04:43:57;;;;;;;8.33;7.73;;;-0.50;99.90;;;0.28;81.60;99083.63;5206077;28;20201;-56
2021/04/13 04:46:39;;;;;;;8.00;7.40;;;-0.50;99.90;;;0.32;81.41;99095.84;5218354;28;20455;-55
2021/04/13 04:49:13;;;;;;;7.90;7.20;;;-0.40;99.90;;;0.34;80.78;99104.44;5214784;28;20205;-58
2021/04/13 04:51:50;;;;;;;8.40;7.80;;;-0.40;99.90;;;0.34;80.85;99091.88;5220362;28;20224;-57
2021/04/13 04:54:23;;;;;;;7.90;7.20;;;-0.40;99.90;;;0.34;80.85;99090.97;5208400;28;20206;-56
2021/04/13 04:56:55;;;;;;;7.60;7.10;;;-0.40;99.90;;;0.35;80.87;99096.19;5218273;28;20752;-56
2021/04/13 04:59:27;;;;;;;8.20;7.47;;;-0.40;99.90;;;0.29;80.16;99105.53;5218843;28;20288;-56
2021/04/13 05:01:59;;;;;;;8.23;7.60;;;-0.40;99.90;;;0.33;80.35;99099.25;5217390;28;20214;-57
2021/04/13 05:04:32;;;;;;;7.40;6.90;;;-0.50;99.90;;;0.43;81.19;99103.00;5224914;28;20597;-56
2021/04/13 05:07:04;;;;;;;7.27;6.70;;;-0.40;99.90;;;0.54;79.92;99108.38;5222087;28;20205;-59
2021/04/13 05:09:37;;;;;;;7.27;6.77;;;-0.30;99.90;;;0.57;80.63;99103.69;5218922;28;20196;-58
2021/04/13 05:12:10;;;;;;;7.53;6.93;;;-0.30;99.90;;;0.59;80.78;99114.84;5224677;28;20568;-58
2021/04/13 05:14:42;;;;;;;8.20;7.50;;;-0.20;99.90;;;0.56;79.94;99111.97;5217672;28;20198;-59
2021/04/13 05:17:14;;;;;;;8.70;8.10;;;-0.30;99.90;;;0.57;80.16;99113.75;5224238;28;20232;-56
2021/04/13 05:19:46;;;;;;;7.93;7.23;;;-0.30;99.90;;;0.63;80.48;99115.38;5221672;28;20205;-59
2021/04/13 05:22:18;;;;;;;7.67;7.07;;;-0.20;99.90;;;0.62;80.33;99112.66;5222566;28;20214;-57
2021/04/13 05:24:51;;;;;;;7.63;6.97;;;-0.20;99.90;;;0.68;79.47;99125.94;5208634;28;20280;-59
2021/04/13 05:27:23;;;;;;;7.40;6.73;;;-0.20;99.90;;;0.63;79.82;99124.50;5223528;28;20233;-61
2021/04/13 05:29:55;;;;;;;8.07;7.47;;;-0.20;99.90;;;0.72;79.47;99129.75;5222625;28;20240;-59
2021/04/13 05:32:27;;;;;;;7.83;7.23;;;-0.20;99.90;;;0.90;78.88;99127.69;5223474;28;20221;-59
2021/04/13 05:34:59;;;;;;;7.43;6.83;;;-0.10;99.90;;;1.13;78.83;99131.94;5217538;28;20578;-52
2021/04/13 05:37:32;;;;;;;7.27;6.77;;;0.00;99.90;;;1.30;77.95;99132.22;5220706;28;20205;-53
2021/04/13 05:40:08;;;;;;;7.40;6.80;;;0.10;99.90;;;1.62;76.80;99147.56;5207843;28;20212;-57
2021/04/13 05:42:41;;;;;;;7.83;7.17;;;0.30;99.90;;;1.90;76.47;99140.56;5223193;28;20214;-56
2021/04/13 05:45:15;;;;;;;7.93;7.23;;;0.60;99.90;;;2.19;76.06;99148.81;5218140;28;20877;-55
2021/04/13 05:47:48;;;;;;;7.60;7.03;;;0.80;99.90;;;2.59;74.32;99140.53;5217921;28;20195;-56
2021/04/13 05:50:25;;;;;;;8.03;7.43;;;1.20;99.90;;;2.97;72.02;99141.25;5223529;28;20379;-54
2021/04/13 05:52:57;;;;;;;8.07;7.37;;;1.40;99.90;;;3.37;71.21;99146.38;5223567;28;20218;-60
2021/04/13 05:55:31;;;;;;;8.20;7.47;;;1.70;99.90;;;3.80;69.53;99145.78;5205887;28;20204;-56
2021/04/13 05:58:07;;;;;;;7.83;7.23;;;2.00;99.90;;;4.04;67.85;99153.41;5208937;28;20240;-56
2021/04/13 06:00:39;;;;;;;7.77;7.10;;;2.30;99.90;;;4.47;66.04;99150.19;5205229;28;20277;-56
2021/04/13 06:03:14;;;;;;;8.00;7.30;;;2.50;99.90;;;4.87;64.64;99145.72;5223744;28;20745;-60
2021/04/13 06:05:48;;;;;;;8.17;7.47;;;2.60;99.90;;;5.05;64.20;99151.72;5206004;28;20197;-56
2021/04/13 06:08:20;;;;;;;8.60;7.80;;;2.80;99.90;;;5.21;62.97;99152.50;5213296;28;20369;-57
2021/04/13 06:10:54;;;;;;;8.57;7.77;;;2.80;99.90;;;4.56;63.42;99157.81;5215255;28;20197;-57
2021/04/13 06:13:27;;;;;;;7.90;7.20;;;2.70;99.90;;;5.26;63.28;99148.75;5218930;28;20197;-57
2021/04/13 06:15:59;;;;;;;7.90;7.20;;;2.70;99.90;;;5.81;62.34;99154.13;5218406;28;20194;-58
2021/04/13 06:18:31;;;;;;;7.67;6.97;;;3.20;99.90;;;6.17;58.51;99145.72;5223431;28;20290;-56
2021/04/13 06:21:04;;;;;;;7.07;6.57;;;3.50;99.90;;;6.42;59.33;99151.47;5223430;28;20291;-56
2021/04/13 06:23:36;;;;;;;7.47;6.80;;;3.50;99.90;;;6.74;58.08;99146.84;5222026;28;20204;-57
2021/04/13 06:26:09;;;;;;;7.77;7.07;;;4.00;99.90;;;6.94;57.13;99143.59;5225472;28;20250;-60
2021/04/13 06:28:41;;;;;;;7.03;6.37;;;4.00;99.90;;;7.24;56.71;99144.63;5217607;28;20206;-56
2021/04/13 06:31:14;;;;;;;7.13;6.50;;;4.60;99.90;;;7.54;55.23;99143.94;5215182;28;20225;-59
2021/04/13 06:33:46;;;;;;;6.33;5.83;;;4.90;99.90;;;7.81;54.57;99152.22;5223571;28;20284;-60
2021/04/13 06:36:23;;;;;;;7.37;6.77;;;4.90;99.90;;;7.80;54.64;99155.53;5211239;28;20296;-59
2021/04/13 06:38:59;;;;;;;7.00;6.50;;;5.10;99.90;;;8.15;54.16;99155.19;5224937;28;20660;-56
2021/04/13 06:41:54;;;;;;;7.03;6.57;;;5.30;99.90;;;8.42;53.01;99155.09;5214888;28;20213;-60
2021/04/13 06:44:50;;;;;;;6.70;6.20;;;5.60;99.90;;;8.48;52.30;99155.59;5224397;28;20205;-57
2021/04/13 06:47:42;;;;;;;7.13;6.63;;;5.70;99.90;;;8.77;52.00;99149.56;5222437;28;20201;-57
2021/04/13 06:50:26;;;;;;;7.83;7.23;;;5.90;99.90;;;8.98;51.93;99147.91;5220524;28;20281;-57
2021/04/13 06:53:17;;;;;;;8.40;7.70;;;6.00;99.90;;;8.98;52.23;99147.91;5212663;28;20682;-57
2021/04/13 06:56:31;;;;;;;8.57;7.97;;;6.20;99.90;;;9.37;51.03;99155.44;5216964;28;20510;-57
2021/04/13 06:59:35;;;;;;;8.13;7.53;;;6.60;99.90;;;9.56;50.35;99154.41;5225389;28;20205;-59
2021/04/13 07:02:14;;;;;;;8.80;8.10;;;6.40;99.90;;;9.68;49.34;99156.28;5201727;28;20641;-55
2021/04/13 07:04:54;;;;;;;10.23;9.30;;;6.40;99.90;;;9.82;51.35;99152.31;5220052;28;20598;-57
2021/04/13 07:07:34;;;;;;;10.73;9.73;;;6.90;99.90;;;10.27;48.77;99145.66;5221149;28;20201;-57
2021/04/13 07:10:18;;;;;;;9.87;9.17;;;7.20;99.90;;;10.72;47.58;99150.91;5223112;28;20652;-57
2021/04/13 07:13:01;;;;;;;10.30;9.47;;;7.40;99.90;;;11.02;47.45;99146.38;5221772;28;20224;-57
2021/04/13 07:15:46;;;;;;;10.93;10.03;;;7.70;99.90;;;11.21;46.83;99149.53;5219993;28;20281;-56
2021/04/13 07:18:24;;;;;;;10.87;9.97;;;7.60;99.90;;;11.18;46.33;99149.31;5218858;28;20193;-56
2021/04/13 07:21:03;;;;;;;9.90;9.10;;;7.80;99.90;;;11.63;46.01;99150.97;5222088;28;20209;-58
2021/04/13 07:23:42;;;;;;;9.93;9.13;;;7.90;99.90;;;11.77;45.67;99149.41;5222261;28;20201;-58
2021/04/13 07:26:23;;;;;;;10.85;10.00;;;8.00;99.90;;;11.94;44.89;99149.00;5224900;28;20293;-60
2021/04/13 07:29:02;;;;;;;9.60;8.90;;;8.20;99.50;;;12.31;44.50;99145.63;5215231;28;20288;-58
2021/04/13 07:31:42;;;;;;;11.00;10.07;;;8.40;99.20;;;11.98;45.18;99146.66;5209671;28;20682;-57
2021/04/13 07:34:16;;;;;;;11.23;10.23;;;8.70;98.90;;;11.75;44.98;99152.63;5226822;28;20247;-56
2021/04/13 07:36:56;;;;;;;10.80;9.93;;;8.60;97.60;;;11.67;46.01;99146.94;5221917;28;20201;-58
2021/04/13 07:39:30;;;;;;;11.65;10.68;;;8.80;97.90;;;11.41;44.89;99157.81;5215351;28;20198;-58
2021/04/13 07:42:07;;;;;;;11.13;10.32;;;8.60;97.00;;;11.42;46.50;99155.41;5212884;28;20205;-57
2021/04/13 07:45:01;;;;;;;13.50;12.50;;;8.60;97.80;;;11.20;46.41;99147.75;5225524;28;20277;-59
2021/04/13 07:47:57;;;;;;;11.25;10.35;;;8.70;96.90;;;11.13;47.70;99149.72;5212232;28;20228;-59
2021/04/13 07:50:48;;;;;;;12.27;11.30;;;9.20;97.30;;;11.36;46.20;99152.38;5227369;28;20706;-60
2021/04/13 07:53:37;;;;;;;11.85;10.95;;;9.50;95.70;;;11.36;45.64;99144.69;5208340;28;20737;-58
2021/04/13 07:56:22;;;;;;;11.15;10.35;;;9.40;95.80;;;11.26;46.56;99143.09;5213566;28;20289;-58
2021/04/13 07:58:59;;;;;;;11.43;10.52;;;9.10;96.40;;;11.05;47.38;99147.50;5212427;28;20197;-58
2021/04/13 08:01:31;;;;;;;11.07;10.18;;;8.80;96.80;;;11.28;47.20;99141.56;5221825;28;20218;-59
2021/04/13 08:04:04;;;;;;;11.38;10.38;;;9.10;96.80;;;11.04;47.37;99144.81;5224135;28;20661;-58
2021/04/13 08:06:48;;;;;;;11.65;10.73;;;9.10;96.40;;;11.12;47.84;99137.72;5223657;28;20645;-60
2021/04/13 08:09:43;;;;;;;11.75;10.77;;;9.10;96.80;;;11.34;47.26;99140.25;5212753;28;20721;-56
2021/04/13 08:12:27;;;;;;;10.82;9.95;;;9.50;95.80;;;11.31;45.61;99133.22;5220930;28;20225;-59
2021/04/13 08:15:15;;;;;;;11.05;10.15;;;9.30;95.60;;;11.06;46.60;99133.03;5217306;28;20204;-59
2021/04/13 08:18:05;;;;;;;10.73;9.63;;;9.10;95.50;;;10.75;46.42;99138.38;5218204;28;20244;-59
2021/04/13 08:20:42;;;;;;;10.43;9.63;;;8.70;96.00;;;10.65;46.90;99132.44;5214727;28;20284;-61
2021/04/13 08:23:39;;;;;;;10.77;9.95;;;8.70;96.10;;;10.25;47.05;99139.53;5216567;28;20304;-58
2021/04/13 08:26:35;;;;;;;11.77;10.97;;;8.50;95.50;;;9.45;50.14;99143.31;5218394;28;20193;-58
2021/04/13 08:29:18;;;;;;;10.93;10.10;;;7.80;97.00;;;9.15;51.73;99137.47;5226888;28;20220;-55
2021/04/13 08:35:05;;;;;;;10.87;10.07;;;7.50;98.80;;;8.84;53.14;99139.09;5223991;28;20197;-56
2021/04/13 08:38:16;;;;;;;10.13;9.43;;;7.40;98.80;;;8.37;49.99;99138.47;5225405;28;20211;-58
2021/04/13 08:41:24;;;;;;;9.10;8.50;;;7.00;96.30;;;8.33;49.55;99137.31;5226809;28;20583;-59
2021/04/13 08:44:09;;;;;;;11.70;10.80;;;6.90;96.20;;;8.33;51.57;99133.88;5224286;28;20199;-59
2021/04/13 08:46:51;;;;;;;11.87;10.97;;;7.10;97.50;;;8.28;53.10;99137.69;5225127;28;20280;-59
2021/04/13 08:49:40;;;;;;;10.40;9.70;;;7.00;99.00;;;8.36;51.89;99136.69;5226111;28;20665;-57
2021/04/13 08:52:20;;;;;;;9.57;8.90;;;7.00;96.90;;;8.28;49.87;99137.69;5225678;28;20308;-57
2021/04/13 08:55:07;;;;;;;9.10;8.30;;;7.00;95.30;;;8.21;48.74;99145.53;5225480;28;20617;-57
2021/04/13 08:57:42;;;;;;;8.90;8.30;;;7.00;94.70;;;7.94;48.26;99139.81;5225535;28;20716;-56
2021/04/13 09:00:40;;;;;;;9.27;8.67;;;6.90;94.10;;;8.03;48.85;99148.25;5225778;28;20692;-56
2021/04/13 09:03:14;;;;;;;9.67;8.97;;;6.80;94.50;;;7.83;47.82;99146.50;5226001;28;20685;-60
2021/04/13 09:05:49;;;;;;;8.97;8.37;;;6.80;93.90;;;7.85;48.55;99150.09;5223785;28;20193;-60
2021/04/13 09:08:35;;;;;;;9.27;8.67;;;6.70;94.50;;;7.86;49.00;99148.44;5221129;28;20197;-59
2021/04/13 09:11:23;;;;;;;8.47;7.87;;;6.80;94.50;;;7.83;48.68;99154.16;5220800;28;20224;-59
2021/04/13 09:14:17;;;;;;;9.90;9.23;;;6.60;94.10;;;7.82;47.44;99143.84;5223132;28;20198;-58
2021/04/13 09:16:58;;;;;;;9.30;8.57;;;6.70;93.40;;;7.85;47.38;99144.13;5211639;28;20277;-58
2021/04/13 09:19:34;;;;;;;8.40;7.80;;;6.80;93.60;;;8.23;45.59;99141.47;5209171;28;20193;-58
2021/04/13 09:22:22;;;;;;;8.53;7.87;;;7.30;92.00;;;8.59;43.92;99135.25;5217819;28;20687;-60
2021/04/13 09:25:13;;;;;;;8.33;7.63;;;7.70;90.50;;;8.82;43.02;99134.66;5205361;28;20579;-58
2021/04/13 09:27:52;;;;;;;7.60;7.10;;;8.00;89.40;;;9.41;42.06;99139.63;5219464;28;20304;-59
2021/04/13 09:30:38;;;;;;;8.90;8.20;;;8.70;87.60;;;9.61;44.39;99130.13;5225286;28;20233;-59
2021/04/13 09:33:33;;;;;;;7.20;6.70;;;9.20;90.50;;;10.17;42.88;99133.81;5215013;28;20213;-57
2021/04/13 09:36:30;;;;;;;7.07;6.57;;;9.60;88.00;;;10.30;38.93;99128.94;5222770;28;20200;-56
2021/04/13 09:40:03;;;;;;;6.90;6.50;;;9.60;81.10;;;10.33;38.78;99121.50;5224849;28;20290;-57
2021/04/13 09:43:18;;;;;;;7.27;6.77;;;9.50;81.90;;;10.12;36.53;99122.31;5225166;28;20296;-56
2021/04/13 09:46:14;;;;;;;6.97;6.47;;;9.30;77.90;;;10.04;37.60;99118.25;5223929;28;20280;-59
2021/04/13 09:49:13;;;;;;;7.40;6.90;;;9.10;79.50;;;10.00;39.57;99123.91;5224595;28;20239;-57
2021/04/13 09:52:08;;;;;;;7.47;6.97;;;8.90;83.40;;;10.04;40.12;99124.25;5220488;28;20693;-58
2021/04/13 09:54:42;;;;;;;8.30;7.70;;;8.80;85.80;;;9.82;42.51;99124.22;5223532;28;20224;-60
2021/04/13 09:57:51;;;;;;;8.60;7.80;;;8.60;88.30;;;9.73;42.66;99120.94;5223577;28;20202;-55
2021/04/13 10:00:42;;;;;;;8.60;8.00;;;8.40;89.90;;;9.65;44.20;99127.09;5225686;28;20217;-58
2021/04/13 10:03:55;;;;;;;8.57;7.97;;;8.30;90.30;;;9.55;42.58;99125.44;5224949;28;20220;-60
2021/04/13 10:06:35;;;;;;;8.13;7.43;;;8.20;89.50;;;9.58;43.31;99124.78;5215878;28;20622;-60
2021/04/13 10:09:19;;;;;;;8.83;8.07;;;8.10;90.20;;;9.44;43.22;99134.78;5224171;28;20292;-57
2021/04/13 10:12:31;;;;;;;7.30;6.80;;;8.10;90.20;;;9.48;42.82;99123.16;5224807;28;20224;-59
2021/04/13 10:15:55;;;;;;;8.50;7.90;;;8.10;90.00;;;9.59;42.00;99126.59;5209262;28;20669;-57
2021/04/13 10:19:08;;;;;;;8.53;7.93;;;8.30;87.70;;;9.64;40.40;99113.44;5221866;28;20201;-60
2021/04/13 10:22:14;;;;;;;8.00;7.40;;;8.50;85.50;;;9.42;40.91;99117.56;5222211;28;20219;-59
2021/04/13 10:25:25;;;;;;;7.57;6.97;;;8.30;85.40;;;9.51;40.02;99107.22;5223904;28;20209;-58
2021/04/13 10:28:36;;;;;;;7.83;7.30;;;8.50;83.00;;;9.71;38.78;99102.03;5223172;28;20280;-60
2021/04/13 10:31:55;;;;;;;8.17;7.57;;;8.90;81.20;;;10.23;37.82;99101.06;5195031;28;20232;-57
2021/04/13 10:35:08;;;;;;;7.17;6.67;;;9.20;80.40;;;10.67;38.05;99095.09;5220194;28;20399;-59
2021/04/13 10:38:50;;;;;;;7.13;6.60;;;9.70;80.30;;;10.71;37.44;99102.22;5218241;28;20206;-58
2021/04/13 10:42:14;;;;;;;7.70;7.13;;;10.00;78.20;;;10.52;38.35;99099.91;5161654;28;20651;-56
2021/04/13 10:45:29;;;;;;;8.10;7.50;;;9.80;79.20;;;10.49;36.92;99099.69;5214030;28;20624;-59
2021/04/13 10:48:55;;;;;;;8.50;7.90;;;9.60;78.20;;;10.16;38.83;99093.72;5211560;28;20193;-56
2021/04/13 10:52:25;;;;;;;8.43;7.83;;;9.20;81.90;;;9.84;41.02;99104.81;5210816;28;20795;-60
2021/04/13 10:55:18;;;;;;;8.50;7.90;;;8.90;83.90;;;9.76;42.58;99100.75;5222554;28;20232;-57
2021/04/13 10:58:56;;;;;;;9.37;8.67;;;8.80;86.60;;;9.75;43.82;99109.16;5223599;28;20569;-61
2021/04/13 11:02:03;;;;;;;8.90;8.30;;;8.80;88.00;;;9.69;42.54;99095.91;5208104;28;20217;-58
2021/04/13 11:05:19;;;;;;;8.57;7.97;;;8.50;86.90;;;9.62;41.49;99101.31;5207999;28;20202;-58
2021/04/13 11:08:46;;;;;;;8.40;7.80;;;8.50;84.90;;;9.76;41.46;99089.63;5220553;28;20553;-56
2021/04/13 11:12:12;;;;;;;8.63;8.00;;;8.80;84.60;;;10.11;38.91;99080.56;5214257;28;20213;-60
2021/04/13 11:15:43;;;;;;;7.83;7.33;;;9.10;81.10;;;10.35;38.55;99076.50;5222311;28;20202;-60
2021/04/13 11:18:55;;;;;;;7.10;6.50;;;9.40;80.90;;;10.55;36.46;99059.25;5228089;28;20759;-59
2021/04/13 11:22:07;;;;;;;7.00;6.50;;;9.60;77.60;;;10.81;33.88;99063.78;5223874;28;20573;-57
2021/04/13 11:24:51;;;;;;;6.80;6.30;;;9.80;72.90;;;10.91;32.50;99060.25;5221454;28;20197;-61
2021/04/13 11:28:19;;;;;;;6.97;6.57;;;10.10;70.60;;;10.76;37.83;99071.13;5222377;28;20201;-60
2021/04/13 11:31:20;;;;;;;7.87;7.20;;;10.10;74.60;;;10.48;39.48;99074.91;5213969;28;20197;-58
2021/04/13 11:34:39;;;;;;;7.63;7.03;;;9.90;81.00;;;10.48;39.15;99072.34;5224237;28;20216;-58
2021/04/13 11:37:48;;;;;;;6.90;6.50;;;9.60;80.40;;;10.20;39.87;99079.50;5224317;28;20200;-60
2021/04/13 11:40:49;;;;;;;6.93;6.43;;;9.10;82.50;;;10.09;40.70;99078.66;5224375;28;20200;-60
2021/04/13 11:43:25;;;;;;;6.33;5.83;;;9.00;83.10;;;10.08;39.52;99072.66;5226671;28;20201;-59